MSC Gina — 3FLY9 — position and weather

sailwx.info

Track history (hours):
 
Tides and Currents Weather Stations Pressure Air Temp Water Temp Dewpoint Dewpoint Depression Visibility Wind Speed Wind Dir Waves Ship Positions

MSC Gina

Last reported at 2014-Jul-31 06:32 UTC. Time now 2014-Jul-31 07:32 UTC.
Position N 45°34' W 073°31'.

Length 259 m; draft 10.7 m.

Type: Ship (hazmat cat A). MMSI: 357542000.

Date/timePositionNaut miles runAvg speedWind from/ knotsBaromVisibWave heightAir tempDewpointWater temp
2014-Jul-31 06:32N 45°34' W 073°31'0 0.0
2014-Jul-31 05:32N 45°34' W 073°31'0 0.0
2014-Jul-31 04:32N 45°34' W 073°31'0 0.0
2014-Jul-31 03:32N 45°34' W 073°31'0 0.0
2014-Jul-31 02:32N 45°34' W 073°31'0 0.0
2014-Jul-31 01:32N 45°34' W 073°31'0 0.0
2014-Jul-31 00:32N 45°34' W 073°31'0 0.0
2014-Jul-30 23:32N 45°34' W 073°31'0 0.0
2014-Jul-30 22:32N 45°34' W 073°31'0 0.0
2014-Jul-30 21:32N 45°34' W 073°31'0 0.0
2014-Jul-30 20:32N 45°34' W 073°31'0 0.0
2014-Jul-30 19:32N 45°34' W 073°31'0 0.0
2014-Jul-30 18:29N 45°34' W 073°31'0 0.0
2014-Jul-30 17:26N 45°34' W 073°31'0 0.0
2014-Jul-30 16:32N 45°34' W 073°31'0 0.0
2014-Jul-30 15:32N 45°34' W 073°31'0 0.0
2014-Jul-30 14:32N 45°34' W 073°31'0 0.0
2014-Jul-30 13:32N 45°34' W 073°31'0 0.0
2014-Jul-30 12:32N 45°34' W 073°31'0 0.0
2014-Jul-30 11:32N 45°34' W 073°31'0 0.0
2014-Jul-30 10:32N 45°34' W 073°31'0 0.0
2014-Jul-30 09:32N 45°34' W 073°31'0 0.0
2014-Jul-30 08:32N 45°34' W 073°31'0 0.0
2014-Jul-30 07:32N 45°34' W 073°31'0 0.0
2014-Jul-30 06:32N 45°34' W 073°31'0 0.0
2014-Jul-30 05:32N 45°34' W 073°31'0 0.0
2014-Jul-30 04:32N 45°34' W 073°31'0 0.0
2014-Jul-30 03:32N 45°34' W 073°31'0 0.0
2014-Jul-30 02:32N 45°34' W 073°31'0 0.0
2014-Jul-30 01:32N 45°34' W 073°31'0 0.0
2014-Jul-30 00:32N 45°34' W 073°31'0 0.0
2014-Jul-29 23:32N 45°34' W 073°31'0 0.0
2014-Jul-29 22:32N 45°34' W 073°31'0 0.0
2014-Jul-29 21:32N 45°34' W 073°31'0 0.0
2014-Jul-29 20:32N 45°34' W 073°31'0 0.0
2014-Jul-29 19:32N 45°34' W 073°31'0 0.0
2014-Jul-29 18:32N 45°34' W 073°31'0 0.0
2014-Jul-29 17:32N 45°34' W 073°31'0 0.0
2014-Jul-29 16:32N 45°34' W 073°31'0 0.0
2014-Jul-29 15:32N 45°34' W 073°31'0 0.0
2014-Jul-29 14:32N 45°34' W 073°31'0 0.0
2014-Jul-29 13:32N 45°34' W 073°31'0 0.0
2014-Jul-29 12:33N 45°34' W 073°31'5 4.5
2014-Jul-29 11:33N 45°39' W 073°29'6 6.5
2014-Jul-29 10:33N 45°45' W 073°24'8 7.7
2014-Jul-29 09:33N 45°50' W 073°17'8 8.0
2014-Jul-29 08:33N 45°58' W 073°12'7 7.4
2014-Jul-29 07:33N 46°04' W 073°06'8 8.0
2014-Jul-29 06:30N 46°09' W 072°57'9 9.2
2014-Jul-29 05:33N 46°14' W 072°46'8 8.4
2014-Jul-29 04:33N 46°18' W 072°35'6 6.0
2014-Jul-29 03:33N 46°22' W 072°30'9 8.9
2014-Jul-29 02:33N 46°26' W 072°18'8 8.5
2014-Jul-29 01:33N 46°33' W 072°10'8 8.0
2014-Jul-29 00:33N 46°36' W 071°59'  
2014-Jul-23 01:23N 39°53' W 014°23'2519.1
2014-Jul-23 00:04N 39°43' W 013°54'1119.1
2014-Jul-22 23:30N 39°38' W 013°41'1919.2
2014-Jul-22 22:30N 39°30' W 013°18'1819.2
2014-Jul-22 21:33N 39°23' W 012°56'1919.2
2014-Jul-22 20:33N 39°15' W 012°33'1919.3
2014-Jul-22 19:33N 39°07' W 012°11'1919.2
2014-Jul-22 18:33N 38°60' W 011°48'1919.1
2014-Jul-22 17:34N 38°52' W 011°26'1919.1
2014-Jul-22 16:33N 38°44' W 011°03'1918.9
2014-Jul-22 15:33N 38°36' W 010°42'1919.2
2014-Jul-22 14:33N 38°28' W 010°19'1918.9
2014-Jul-22 13:33N 38°20' W 009°58'1919.0
2014-Jul-22 12:33N 38°12' W 009°35'1918.8
2014-Jul-22 11:33N 38°03' W 009°15'1918.6
2014-Jul-22 10:33N 37°53' W 008°55'4 4.0
2014-Jul-22 09:29N 37°56' W 008°51'0 0.0
2014-Jul-22 08:32N 37°56' W 008°51'0 0.0
2014-Jul-22 07:32N 37°56' W 008°51'0 0.0
2014-Jul-22 06:32N 37°56' W 008°51'0 0.0
2014-Jul-22 05:32N 37°56' W 008°51'0 0.0
2014-Jul-22 04:32N 37°56' W 008°51'0 0.0
2014-Jul-22 03:32N 37°56' W 008°51'0 0.0
2014-Jul-22 02:32N 37°56' W 008°51'0 0.0
2014-Jul-22 01:32N 37°56' W 008°51'0 0.0
2014-Jul-22 00:32N 37°56' W 008°51'0 0.0
2014-Jul-21 23:32N 37°56' W 008°51'0 0.0
2014-Jul-21 22:32N 37°56' W 008°51'0 0.0
2014-Jul-21 21:32N 37°56' W 008°51'0 0.0
2014-Jul-21 20:32N 37°56' W 008°51'0 0.0
2014-Jul-21 20:17N 37°56' W 008°51'0 0.0
2014-Jul-21 19:32N 37°56' W 008°51'0 0.0
2014-Jul-21 18:29N 37°56' W 008°51'0 0.0
2014-Jul-21 17:32N 37°56' W 008°51'1 0.8
2014-Jul-21 16:33N 37°55' W 008°51'1212.0
2014-Jul-21 15:33N 37°45' W 008°59'1918.5
2014-Jul-21 14:33N 37°29' W 009°10'1918.7
2014-Jul-21 13:33N 37°12' W 009°19'1918.8
2014-Jul-21 12:33N 36°53' W 009°19'2518.2
2014-Jul-21 11:12N 36°40' W 008°53'1218.4
2014-Jul-21 10:33N 36°36' W 008°39'4019.0
2014-Jul-21 08:27N 36°24' W 007°52'  
Track history (hours):
 
Tides and Currents Weather Stations Pressure Air Temp Water Temp Dewpoint Dewpoint Depression Visibility Wind Speed Wind Dir Waves Ship Positions

MSC Gina

Last reported at 2014-Jul-31 06:32 UTC. Time now 2014-Jul-31 07:32 UTC.
Position N 45°34' W 073°31'.

Length 259 m; draft 10.7 m.

Type: Ship (hazmat cat A). MMSI: 357542000.

Date/timePositionNaut miles runAvg speedWind from/ knotsBaromVisibWave heightAir tempDewpointWater temp
2014-Jul-31 06:32N 45°34' W 073°31'0 0.0
2014-Jul-31 05:32N 45°34' W 073°31'0 0.0
2014-Jul-31 04:32N 45°34' W 073°31'0 0.0
2014-Jul-31 03:32N 45°34' W 073°31'0 0.0
2014-Jul-31 02:32N 45°34' W 073°31'0 0.0
2014-Jul-31 01:32N 45°34' W 073°31'0 0.0
2014-Jul-31 00:32N 45°34' W 073°31'0 0.0
2014-Jul-30 23:32N 45°34' W 073°31'0 0.0
2014-Jul-30 22:32N 45°34' W 073°31'0 0.0
2014-Jul-30 21:32N 45°34' W 073°31'0 0.0
2014-Jul-30 20:32N 45°34' W 073°31'0 0.0
2014-Jul-30 19:32N 45°34' W 073°31'0 0.0
2014-Jul-30 18:29N 45°34' W 073°31'0 0.0
2014-Jul-30 17:26N 45°34' W 073°31'0 0.0
2014-Jul-30 16:32N 45°34' W 073°31'0 0.0
2014-Jul-30 15:32N 45°34' W 073°31'0 0.0
2014-Jul-30 14:32N 45°34' W 073°31'0 0.0
2014-Jul-30 13:32N 45°34' W 073°31'0 0.0
2014-Jul-30 12:32N 45°34' W 073°31'0 0.0
2014-Jul-30 11:32N 45°34' W 073°31'0 0.0
2014-Jul-30 10:32N 45°34' W 073°31'0 0.0
2014-Jul-30 09:32N 45°34' W 073°31'0 0.0
2014-Jul-30 08:32N 45°34' W 073°31'0 0.0
2014-Jul-30 07:32N 45°34' W 073°31'0 0.0
2014-Jul-30 06:32N 45°34' W 073°31'0 0.0
2014-Jul-30 05:32N 45°34' W 073°31'0 0.0
2014-Jul-30 04:32N 45°34' W 073°31'0 0.0
2014-Jul-30 03:32N 45°34' W 073°31'0 0.0
2014-Jul-30 02:32N 45°34' W 073°31'0 0.0
2014-Jul-30 01:32N 45°34' W 073°31'0 0.0
2014-Jul-30 00:32N 45°34' W 073°31'0 0.0
2014-Jul-29 23:32N 45°34' W 073°31'0 0.0
2014-Jul-29 22:32N 45°34' W 073°31'0 0.0
2014-Jul-29 21:32N 45°34' W 073°31'0 0.0
2014-Jul-29 20:32N 45°34' W 073°31'0 0.0
2014-Jul-29 19:32N 45°34' W 073°31'0 0.0
2014-Jul-29 18:32N 45°34' W 073°31'0 0.0
2014-Jul-29 17:32N 45°34' W 073°31'0 0.0
2014-Jul-29 16:32N 45°34' W 073°31'0 0.0
2014-Jul-29 15:32N 45°34' W 073°31'0 0.0
2014-Jul-29 14:32N 45°34' W 073°31'0 0.0
2014-Jul-29 13:32N 45°34' W 073°31'0 0.0
2014-Jul-29 12:33N 45°34' W 073°31'5 4.5
2014-Jul-29 11:33N 45°39' W 073°29'6 6.5
2014-Jul-29 10:33N 45°45' W 073°24'8 7.7
2014-Jul-29 09:33N 45°50' W 073°17'8 8.0
2014-Jul-29 08:33N 45°58' W 073°12'7 7.4
2014-Jul-29 07:33N 46°04' W 073°06'8 8.0
2014-Jul-29 06:30N 46°09' W 072°57'9 9.2
2014-Jul-29 05:33N 46°14' W 072°46'8 8.4
2014-Jul-29 04:33N 46°18' W 072°35'6 6.0
2014-Jul-29 03:33N 46°22' W 072°30'9 8.9
2014-Jul-29 02:33N 46°26' W 072°18'8 8.5
2014-Jul-29 01:33N 46°33' W 072°10'8 8.0
2014-Jul-29 00:33N 46°36' W 071°59'  
2014-Jul-23 01:23N 39°53' W 014°23'2519.1
2014-Jul-23 00:04N 39°43' W 013°54'1119.1
2014-Jul-22 23:30N 39°38' W 013°41'1919.2
2014-Jul-22 22:30N 39°30' W 013°18'1819.2
2014-Jul-22 21:33N 39°23' W 012°56'1919.2
2014-Jul-22 20:33N 39°15' W 012°33'1919.3
2014-Jul-22 19:33N 39°07' W 012°11'1919.2
2014-Jul-22 18:33N 38°60' W 011°48'1919.1
2014-Jul-22 17:34N 38°52' W 011°26'1919.1
2014-Jul-22 16:33N 38°44' W 011°03'1918.9
2014-Jul-22 15:33N 38°36' W 010°42'1919.2
2014-Jul-22 14:33N 38°28' W 010°19'1918.9
2014-Jul-22 13:33N 38°20' W 009°58'1919.0
2014-Jul-22 12:33N 38°12' W 009°35'1918.8
2014-Jul-22 11:33N 38°03' W 009°15'1918.6
2014-Jul-22 10:33N 37°53' W 008°55'4 4.0
2014-Jul-22 09:29N 37°56' W 008°51'0 0.0
2014-Jul-22 08:32N 37°56' W 008°51'0 0.0
2014-Jul-22 07:32N 37°56' W 008°51'0 0.0
2014-Jul-22 06:32N 37°56' W 008°51'0 0.0
2014-Jul-22 05:32N 37°56' W 008°51'0 0.0
2014-Jul-22 04:32N 37°56' W 008°51'0 0.0
2014-Jul-22 03:32N 37°56' W 008°51'0 0.0
2014-Jul-22 02:32N 37°56' W 008°51'0 0.0
2014-Jul-22 01:32N 37°56' W 008°51'0 0.0
2014-Jul-22 00:32N 37°56' W 008°51'0 0.0
2014-Jul-21 23:32N 37°56' W 008°51'0 0.0
2014-Jul-21 22:32N 37°56' W 008°51'0 0.0
2014-Jul-21 21:32N 37°56' W 008°51'0 0.0
2014-Jul-21 20:32N 37°56' W 008°51'0 0.0
2014-Jul-21 20:17N 37°56' W 008°51'0 0.0
2014-Jul-21 19:32N 37°56' W 008°51'0 0.0
2014-Jul-21 18:29N 37°56' W 008°51'0 0.0
2014-Jul-21 17:32N 37°56' W 008°51'1 0.8
2014-Jul-21 16:33N 37°55' W 008°51'1212.0
2014-Jul-21 15:33N 37°45' W 008°59'1918.5
2014-Jul-21 14:33N 37°29' W 009°10'1918.7
2014-Jul-21 13:33N 37°12' W 009°19'1918.8
2014-Jul-21 12:33N 36°53' W 009°19'2518.2
2014-Jul-21 11:12N 36°40' W 008°53'1218.4
2014-Jul-21 10:33N 36°36' W 008°39'4019.0
2014-Jul-21 08:27N 36°24' W 007°52'  

Dump ship's entire track history